sensor_id;sensor_type;location;lat;lon;timestamp;temperature;humidity
14252;DHT22;7210;51.502;10.722;2022-09-03T00:02:38;12.80;1.00
14252;DHT22;7210;51.502;10.722;2022-09-03T00:05:13;12.80;1.00
14252;DHT22;7210;51.502;10.722;2022-09-03T00:07:53;12.70;1.00
14252;DHT22;7210;51.502;10.722;2022-09-03T00:10:38;12.60;1.00
14252;DHT22;7210;51.502;10.722;2022-09-03T00:13:14;12.50;1.00
14252;DHT22;7210;51.502;10.722;2022-09-03T00:15:45;12.50;1.00
14252;DHT22;7210;51.502;10.722;2022-09-03T00:18:17;12.40;1.00
14252;DHT22;7210;51.502;10.722;2022-09-03T00:20:51;12.40;1.00
14252;DHT22;7210;51.502;10.722;2022-09-03T00:23:26;12.30;1.00
14252;DHT22;7210;51.502;10.722;2022-09-03T00:26:13;12.30;1.00
14252;DHT22;7210;51.502;10.722;2022-09-03T00:28:46;12.30;1.00
14252;DHT22;7210;51.502;10.722;2022-09-03T00:31:21;12.30;1.00
14252;DHT22;7210;51.502;10.722;2022-09-03T00:33:57;12.20;1.00
14252;DHT22;7210;51.502;10.722;2022-09-03T00:36:34;12.20;1.00
14252;DHT22;7210;51.502;10.722;2022-09-03T00:39:09;12.20;1.00
14252;DHT22;7210;51.502;10.722;2022-09-03T00:41:54;12.20;1.00
14252;DHT22;7210;51.502;10.722;2022-09-03T00:44:42;12.10;1.00
14252;DHT22;7210;51.502;10.722;2022-09-03T00:47:25;12.00;1.00
14252;DHT22;7210;51.502;10.722;2022-09-03T00:50:08;12.00;1.00
14252;DHT22;7210;51.502;10.722;2022-09-03T00:52:52;12.00;1.00
14252;DHT22;7210;51.502;10.722;2022-09-03T00:55:33;12.00;1.00
14252;DHT22;7210;51.502;10.722;2022-09-03T00:58:33;11.90;1.00
14252;DHT22;7210;51.502;10.722;2022-09-03T01:01:15;11.90;1.00
14252;DHT22;7210;51.502;10.722;2022-09-03T01:03:54;11.80;1.00
14252;DHT22;7210;51.502;10.722;2022-09-03T01:06:38;11.70;1.00
14252;DHT22;7210;51.502;10.722;2022-09-03T01:09:24;11.70;1.00
14252;DHT22;7210;51.502;10.722;2022-09-03T01:12:06;11.60;1.00
14252;DHT22;7210;51.502;10.722;2022-09-03T01:14:48;11.60;1.00
14252;DHT22;7210;51.502;10.722;2022-09-03T01:17:31;11.60;1.00
14252;DHT22;7210;51.502;10.722;2022-09-03T01:23:39;11.50;1.00
14252;DHT22;7210;51.502;10.722;2022-09-03T01:32:23;11.50;1.00
14252;DHT22;7210;51.502;10.722;2022-09-03T01:35:00;11.50;1.00
14252;DHT22;7210;51.502;10.722;2022-09-03T01:37:41;11.40;1.00
14252;DHT22;7210;51.502;10.722;2022-09-03T01:40:28;11.30;1.00
14252;DHT22;7210;51.502;10.722;2022-09-03T01:43:33;11.20;1.00
14252;DHT22;7210;51.502;10.722;2022-09-03T01:46:20;11.10;1.00
14252;DHT22;7210;51.502;10.722;2022-09-03T01:48:54;11.10;1.00
14252;DHT22;7210;51.502;10.722;2022-09-03T01:51:31;11.00;1.00
14252;DHT22;7210;51.502;10.722;2022-09-03T01:54:31;10.90;1.00
14252;DHT22;7210;51.502;10.722;2022-09-03T01:57:38;10.90;1.00
14252;DHT22;7210;51.502;10.722;2022-09-03T02:00:12;10.80;1.00
14252;DHT22;7210;51.502;10.722;2022-09-03T02:03:08;10.70;1.00
14252;DHT22;7210;51.502;10.722;2022-09-03T02:05:38;10.70;1.00
14252;DHT22;7210;51.502;10.722;2022-09-03T02:08:09;10.60;1.00
14252;DHT22;7210;51.502;10.722;2022-09-03T02:13:49;10.50;1.00
14252;DHT22;7210;51.502;10.722;2022-09-03T02:16:22;10.50;1.00
14252;DHT22;7210;51.502;10.722;2022-09-03T02:18:57;10.40;1.00
14252;DHT22;7210;51.502;10.722;2022-09-03T02:21:30;10.40;1.00
14252;DHT22;7210;51.502;10.722;2022-09-03T02:24:02;10.30;1.00
14252;DHT22;7210;51.502;10.722;2022-09-03T02:26:30;10.20;1.00
14252;DHT22;7210;51.502;10.722;2022-09-03T02:29:01;10.10;1.00
14252;DHT22;7210;51.502;10.722;2022-09-03T02:31:29;10.00;1.00
14252;DHT22;7210;51.502;10.722;2022-09-03T02:34:01;9.90;1.00
14252;DHT22;7210;51.502;10.722;2022-09-03T02:36:31;9.80;1.00
14252;DHT22;7210;51.502;10.722;2022-09-03T02:39:01;9.80;1.00
14252;DHT22;7210;51.502;10.722;2022-09-03T02:41:30;9.80;1.00
14252;DHT22;7210;51.502;10.722;2022-09-03T02:44:00;9.80;1.00
14252;DHT22;7210;51.502;10.722;2022-09-03T02:46:37;9.80;1.00
14252;DHT22;7210;51.502;10.722;2022-09-03T02:49:08;9.70;1.00
14252;DHT22;7210;51.502;10.722;2022-09-03T02:51:38;9.70;1.00
14252;DHT22;7210;51.502;10.722;2022-09-03T02:54:12;9.70;1.00
14252;DHT22;7210;51.502;10.722;2022-09-03T02:56:40;9.70;1.00
14252;DHT22;7210;51.502;10.722;2022-09-03T02:59:08;9.60;1.00
14252;DHT22;7210;51.502;10.722;2022-09-03T03:01:36;9.50;1.00
14252;DHT22;7210;51.502;10.722;2022-09-03T03:04:03;9.50;1.00
14252;DHT22;7210;51.502;10.722;2022-09-03T03:06:31;9.60;1.00
14252;DHT22;7210;51.502;10.722;2022-09-03T03:08:59;9.50;1.00
14252;DHT22;7210;51.502;10.722;2022-09-03T03:11:36;9.40;1.00
14252;DHT22;7210;51.502;10.722;2022-09-03T03:14:05;9.40;1.00
14252;DHT22;7210;51.502;10.722;2022-09-03T03:16:32;9.30;1.00
14252;DHT22;7210;51.502;10.722;2022-09-03T03:18:59;9.30;1.00
14252;DHT22;7210;51.502;10.722;2022-09-03T03:21:26;9.20;1.00
14252;DHT22;7210;51.502;10.722;2022-09-03T03:23:55;9.10;1.00
14252;DHT22;7210;51.502;10.722;2022-09-03T03:26:22;9.10;1.00
14252;DHT22;7210;51.502;10.722;2022-09-03T03:28:55;9.00;1.00
14252;DHT22;7210;51.502;10.722;2022-09-03T03:31:23;9.00;1.00
14252;DHT22;7210;51.502;10.722;2022-09-03T03:33:52;8.90;1.00
14252;DHT22;7210;51.502;10.722;2022-09-03T03:36:22;8.90;1.00
14252;DHT22;7210;51.502;10.722;2022-09-03T03:38:53;8.90;1.00
14252;DHT22;7210;51.502;10.722;2022-09-03T03:41:26;8.90;1.00
14252;DHT22;7210;51.502;10.722;2022-09-03T03:43:57;8.80;1.00
14252;DHT22;7210;51.502;10.722;2022-09-03T03:46:29;8.80;1.00
14252;DHT22;7210;51.502;10.722;2022-09-03T03:48:58;8.80;1.00
14252;DHT22;7210;51.502;10.722;2022-09-03T03:51:26;8.70;1.00
14252;DHT22;7210;51.502;10.722;2022-09-03T03:53:57;8.60;1.00
14252;DHT22;7210;51.502;10.722;2022-09-03T03:56:26;8.60;1.00
14252;DHT22;7210;51.502;10.722;2022-09-03T03:58:54;8.50;1.00
14252;DHT22;7210;51.502;10.722;2022-09-03T04:01:23;8.40;1.00
14252;DHT22;7210;51.502;10.722;2022-09-03T04:03:55;8.40;1.00
14252;DHT22;7210;51.502;10.722;2022-09-03T04:06:23;8.40;1.00
14252;DHT22;7210;51.502;10.722;2022-09-03T04:08:50;8.30;1.00
14252;DHT22;7210;51.502;10.722;2022-09-03T04:11:20;8.30;1.00
14252;DHT22;7210;51.502;10.722;2022-09-03T04:13:49;8.20;1.00
14252;DHT22;7210;51.502;10.722;2022-09-03T04:16:19;8.20;1.00
14252;DHT22;7210;51.502;10.722;2022-09-03T04:18:48;8.10;1.00
14252;DHT22;7210;51.502;10.722;2022-09-03T04:21:17;8.10;1.00
14252;DHT22;7210;51.502;10.722;2022-09-03T04:23:49;8.00;1.00
14252;DHT22;7210;51.502;10.722;2022-09-03T04:26:20;8.00;1.00
14252;DHT22;7210;51.502;10.722;2022-09-03T04:28:54;7.90;1.00
14252;DHT22;7210;51.502;10.722;2022-09-03T04:31:21;7.90;1.00
14252;DHT22;7210;51.502;10.722;2022-09-03T04:33:48;7.90;1.00
14252;DHT22;7210;51.502;10.722;2022-09-03T04:36:17;7.90;1.00
14252;DHT22;7210;51.502;10.722;2022-09-03T04:38:48;7.80;1.00
14252;DHT22;7210;51.502;10.722;2022-09-03T04:41:19;7.90;1.00
14252;DHT22;7210;51.502;10.722;2022-09-03T04:43:50;7.80;1.00
14252;DHT22;7210;51.502;10.722;2022-09-03T04:46:19;7.70;1.00
14252;DHT22;7210;51.502;10.722;2022-09-03T04:48:49;7.70;1.00
14252;DHT22;7210;51.502;10.722;2022-09-03T04:51:18;7.70;1.00
14252;DHT22;7210;51.502;10.722;2022-09-03T04:53:52;7.70;1.00
14252;DHT22;7210;51.502;10.722;2022-09-03T04:56:24;7.60;1.00
14252;DHT22;7210;51.502;10.722;2022-09-03T04:58:55;7.60;1.00
14252;DHT22;7210;51.502;10.722;2022-09-03T05:01:25;7.60;1.00
14252;DHT22;7210;51.502;10.722;2022-09-03T05:03:56;7.60;1.00
14252;DHT22;7210;51.502;10.722;2022-09-03T05:06:23;7.60;1.00
14252;DHT22;7210;51.502;10.722;2022-09-03T05:08:52;7.60;1.00
14252;DHT22;7210;51.502;10.722;2022-09-03T05:11:26;7.60;1.00
14252;DHT22;7210;51.502;10.722;2022-09-03T05:13:56;7.60;1.00
14252;DHT22;7210;51.502;10.722;2022-09-03T05:16:30;7.70;1.00
14252;DHT22;7210;51.502;10.722;2022-09-03T05:18:59;7.70;1.00
14252;DHT22;7210;51.502;10.722;2022-09-03T05:21:30;7.80;1.00
14252;DHT22;7210;51.502;10.722;2022-09-03T05:23:58;8.10;1.00
14252;DHT22;7210;51.502;10.722;2022-09-03T05:26:29;8.20;1.00
14252;DHT22;7210;51.502;10.722;2022-09-03T05:28:59;8.20;1.00
14252;DHT22;7210;51.502;10.722;2022-09-03T05:31:29;8.30;1.00
14252;DHT22;7210;51.502;10.722;2022-09-03T05:34:06;8.50;1.00
14252;DHT22;7210;51.502;10.722;2022-09-03T05:36:35;8.50;1.00
14252;DHT22;7210;51.502;10.722;2022-09-03T05:39:04;8.70;1.00
14252;DHT22;7210;51.502;10.722;2022-09-03T05:41:33;8.70;1.00
14252;DHT22;7210;51.502;10.722;2022-09-03T05:44:01;8.90;1.00
14252;DHT22;7210;51.502;10.722;2022-09-03T05:46:31;9.00;1.00
14252;DHT22;7210;51.502;10.722;2022-09-03T05:49:03;9.20;1.00
14252;DHT22;7210;51.502;10.722;2022-09-03T05:51:33;9.30;1.00
14252;DHT22;7210;51.502;10.722;2022-09-03T05:54:02;9.50;1.00
14252;DHT22;7210;51.502;10.722;2022-09-03T05:56:31;9.70;1.00
14252;DHT22;7210;51.502;10.722;2022-09-03T05:59:04;9.90;1.00
14252;DHT22;7210;51.502;10.722;2022-09-03T06:01:35;10.10;1.00
14252;DHT22;7210;51.502;10.722;2022-09-03T06:04:05;10.20;1.00
14252;DHT22;7210;51.502;10.722;2022-09-03T06:06:37;10.40;1.00
14252;DHT22;7210;51.502;10.722;2022-09-03T06:09:07;10.60;1.00
14252;DHT22;7210;51.502;10.722;2022-09-03T06:11:38;10.80;1.00
14252;DHT22;7210;51.502;10.722;2022-09-03T06:14:08;10.90;1.00
14252;DHT22;7210;51.502;10.722;2022-09-03T06:16:39;11.10;1.00
14252;DHT22;7210;51.502;10.722;2022-09-03T06:19:08;11.20;1.00
14252;DHT22;7210;51.502;10.722;2022-09-03T06:21:38;11.30;1.00
14252;DHT22;7210;51.502;10.722;2022-09-03T06:24:08;11.50;1.00
14252;DHT22;7210;51.502;10.722;2022-09-03T06:26:38;11.60;1.00
14252;DHT22;7210;51.502;10.722;2022-09-03T06:29:06;11.80;1.00
14252;DHT22;7210;51.502;10.722;2022-09-03T06:31:33;11.90;1.00
14252;DHT22;7210;51.502;10.722;2022-09-03T06:34:00;12.10;1.00
14252;DHT22;7210;51.502;10.722;2022-09-03T06:36:28;12.30;1.00
14252;DHT22;7210;51.502;10.722;2022-09-03T06:38:56;12.50;1.00
14252;DHT22;7210;51.502;10.722;2022-09-03T06:41:25;12.70;1.00
14252;DHT22;7210;51.502;10.722;2022-09-03T06:43:59;12.90;1.00
14252;DHT22;7210;51.502;10.722;2022-09-03T06:46:28;13.10;1.00
14252;DHT22;7210;51.502;10.722;2022-09-03T06:48:57;13.20;1.00
14252;DHT22;7210;51.502;10.722;2022-09-03T06:51:25;13.40;1.00
14252;DHT22;7210;51.502;10.722;2022-09-03T06:53:59;13.60;1.00
14252;DHT22;7210;51.502;10.722;2022-09-03T06:56:27;13.70;1.00
14252;DHT22;7210;51.502;10.722;2022-09-03T06:59:04;13.80;1.00
14252;DHT22;7210;51.502;10.722;2022-09-03T07:01:33;14.00;1.00
14252;DHT22;7210;51.502;10.722;2022-09-03T07:04:02;14.10;1.00
14252;DHT22;7210;51.502;10.722;2022-09-03T07:06:32;14.20;1.00
14252;DHT22;7210;51.502;10.722;2022-09-03T07:09:03;14.30;1.00
14252;DHT22;7210;51.502;10.722;2022-09-03T07:11:31;14.50;1.00
14252;DHT22;7210;51.502;10.722;2022-09-03T07:14:02;14.50;1.00
14252;DHT22;7210;51.502;10.722;2022-09-03T07:16:33;14.60;1.00
14252;DHT22;7210;51.502;10.722;2022-09-03T07:19:02;14.70;1.00
14252;DHT22;7210;51.502;10.722;2022-09-03T07:21:32;14.80;1.00
14252;DHT22;7210;51.502;10.722;2022-09-03T07:24:02;14.90;1.00
14252;DHT22;7210;51.502;10.722;2022-09-03T07:26:32;15.00;1.00
14252;DHT22;7210;51.502;10.722;2022-09-03T07:29:02;15.10;1.00
14252;DHT22;7210;51.502;10.722;2022-09-03T07:31:32;15.10;1.00
14252;DHT22;7210;51.502;10.722;2022-09-03T07:34:03;15.20;1.00
14252;DHT22;7210;51.502;10.722;2022-09-03T07:36:36;15.20;1.00
14252;DHT22;7210;51.502;10.722;2022-09-03T07:39:04;15.40;1.00
14252;DHT22;7210;51.502;10.722;2022-09-03T07:41:31;15.50;1.00
14252;DHT22;7210;51.502;10.722;2022-09-03T07:44:00;15.50;1.00
14252;DHT22;7210;51.502;10.722;2022-09-03T07:46:32;15.60;1.00
14252;DHT22;7210;51.502;10.722;2022-09-03T07:49:01;15.70;1.00
14252;DHT22;7210;51.502;10.722;2022-09-03T07:51:31;15.80;1.00
14252;DHT22;7210;51.502;10.722;2022-09-03T07:54:01;15.90;1.00
14252;DHT22;7210;51.502;10.722;2022-09-03T07:56:31;15.90;1.00
14252;DHT22;7210;51.502;10.722;2022-09-03T07:59:08;16.00;1.00
14252;DHT22;7210;51.502;10.722;2022-09-03T08:01:42;16.00;1.00
14252;DHT22;7210;51.502;10.722;2022-09-03T08:04:09;16.10;1.00
14252;DHT22;7210;51.502;10.722;2022-09-03T08:06:37;16.20;1.00
14252;DHT22;7210;51.502;10.722;2022-09-03T08:09:08;16.40;1.00
14252;DHT22;7210;51.502;10.722;2022-09-03T08:11:39;16.50;1.00
14252;DHT22;7210;51.502;10.722;2022-09-03T08:14:11;16.60;1.00
14252;DHT22;7210;51.502;10.722;2022-09-03T08:16:41;16.60;1.00
14252;DHT22;7210;51.502;10.722;2022-09-03T08:19:10;16.70;1.00
14252;DHT22;7210;51.502;10.722;2022-09-03T08:21:39;16.90;1.00
14252;DHT22;7210;51.502;10.722;2022-09-03T08:24:07;17.00;1.00
14252;DHT22;7210;51.502;10.722;2022-09-03T08:26:37;17.10;1.00
14252;DHT22;7210;51.502;10.722;2022-09-03T08:29:06;17.20;1.00
14252;DHT22;7210;51.502;10.722;2022-09-03T08:31:36;17.30;1.00
14252;DHT22;7210;51.502;10.722;2022-09-03T08:34:06;17.40;1.00
14252;DHT22;7210;51.502;10.722;2022-09-03T08:36:38;17.50;1.00
14252;DHT22;7210;51.502;10.722;2022-09-03T08:39:08;17.50;1.00
14252;DHT22;7210;51.502;10.722;2022-09-03T08:44:45;17.70;1.00
14252;DHT22;7210;51.502;10.722;2022-09-03T08:47:20;17.80;1.00
14252;DHT22;7210;51.502;10.722;2022-09-03T08:49:54;17.90;1.00
14252;DHT22;7210;51.502;10.722;2022-09-03T08:52:30;18.00;1.00
14252;DHT22;7210;51.502;10.722;2022-09-03T08:55:24;18.10;1.00
14252;DHT22;7210;51.502;10.722;2022-09-03T08:57:58;18.20;1.00
14252;DHT22;7210;51.502;10.722;2022-09-03T09:00:38;18.30;1.00
14252;DHT22;7210;51.502;10.722;2022-09-03T09:03:28;18.30;1.00
14252;DHT22;7210;51.502;10.722;2022-09-03T09:06:11;18.50;1.00
14252;DHT22;7210;51.502;10.722;2022-09-03T09:08:52;18.60;1.00
14252;DHT22;7210;51.502;10.722;2022-09-03T09:11:37;18.60;1.00
14252;DHT22;7210;51.502;10.722;2022-09-03T09:14:19;18.80;1.00
14252;DHT22;7210;51.502;10.722;2022-09-03T09:16:58;18.90;1.00
14252;DHT22;7210;51.502;10.722;2022-09-03T09:19:41;19.10;1.00
14252;DHT22;7210;51.502;10.722;2022-09-03T09:22:23;19.10;1.00
14252;DHT22;7210;51.502;10.722;2022-09-03T09:24:59;19.20;1.00
14252;DHT22;7210;51.502;10.722;2022-09-03T09:27:31;19.30;1.00
14252;DHT22;7210;51.502;10.722;2022-09-03T09:30:03;19.40;1.00
14252;DHT22;7210;51.502;10.722;2022-09-03T09:32:36;19.40;1.00
14252;DHT22;7210;51.502;10.722;2022-09-03T09:35:08;19.60;1.00
14252;DHT22;7210;51.502;10.722;2022-09-03T09:37:46;19.70;1.00
14252;DHT22;7210;51.502;10.722;2022-09-03T09:40:26;19.80;1.00
14252;DHT22;7210;51.502;10.722;2022-09-03T09:43:06;19.90;1.00
14252;DHT22;7210;51.502;10.722;2022-09-03T09:45:37;20.10;1.00
14252;DHT22;7210;51.502;10.722;2022-09-03T09:48:16;20.20;1.00
14252;DHT22;7210;51.502;10.722;2022-09-03T09:50:49;20.30;1.00
14252;DHT22;7210;51.502;10.722;2022-09-03T09:53:31;20.40;1.00
14252;DHT22;7210;51.502;10.722;2022-09-03T09:55:59;20.50;1.00
14252;DHT22;7210;51.502;10.722;2022-09-03T09:58:29;20.60;1.00
14252;DHT22;7210;51.502;10.722;2022-09-03T10:01:01;20.70;1.00
14252;DHT22;7210;51.502;10.722;2022-09-03T10:03:33;20.90;1.00
14252;DHT22;7210;51.502;10.722;2022-09-03T10:06:06;20.90;1.00
14252;DHT22;7210;51.502;10.722;2022-09-03T10:09:04;20.90;1.00
14252;DHT22;7210;51.502;10.722;2022-09-03T10:11:34;21.00;1.00
14252;DHT22;7210;51.502;10.722;2022-09-03T10:14:10;21.10;1.00
14252;DHT22;7210;51.502;10.722;2022-09-03T10:17:06;21.10;1.00
14252;DHT22;7210;51.502;10.722;2022-09-03T10:19:45;21.30;1.00
14252;DHT22;7210;51.502;10.722;2022-09-03T10:22:44;21.30;1.00
14252;DHT22;7210;51.502;10.722;2022-09-03T10:25:20;21.40;1.00
14252;DHT22;7210;51.502;10.722;2022-09-03T10:27:56;21.40;1.00
14252;DHT22;7210;51.502;10.722;2022-09-03T10:30:30;21.60;1.00
14252;DHT22;7210;51.502;10.722;2022-09-03T10:33:17;21.70;1.00
14252;DHT22;7210;51.502;10.722;2022-09-03T10:35:53;21.80;1.00
14252;DHT22;7210;51.502;10.722;2022-09-03T10:38:31;21.80;1.00
14252;DHT22;7210;51.502;10.722;2022-09-03T10:41:12;21.80;1.00
14252;DHT22;7210;51.502;10.722;2022-09-03T10:44:03;21.90;1.00
14252;DHT22;7210;51.502;10.722;2022-09-03T10:46:56;22.10;1.00
14252;DHT22;7210;51.502;10.722;2022-09-03T10:49:47;22.30;1.30
14252;DHT22;7210;51.502;10.722;2022-09-03T10:52:28;22.40;2.90
14252;DHT22;7210;51.502;10.722;2022-09-03T10:55:15;22.50;3.80
14252;DHT22;7210;51.502;10.722;2022-09-03T10:57:53;22.50;4.20
14252;DHT22;7210;51.502;10.722;2022-09-03T11:00:33;22.50;4.90
14252;DHT22;7210;51.502;10.722;2022-09-03T11:06:18;22.80;8.00
14252;DHT22;7210;51.502;10.722;2022-09-03T11:08:54;22.90;9.20
14252;DHT22;7210;51.502;10.722;2022-09-03T11:11:31;23.00;12.20
14252;DHT22;7210;51.502;10.722;2022-09-03T11:14:06;23.10;11.10
14252;DHT22;7210;51.502;10.722;2022-09-03T11:16:38;23.30;15.10
14252;DHT22;7210;51.502;10.722;2022-09-03T11:19:12;23.40;16.20
14252;DHT22;7210;51.502;10.722;2022-09-03T11:21:43;23.50;19.10
14252;DHT22;7210;51.502;10.722;2022-09-03T11:24:13;23.60;19.70
14252;DHT22;7210;51.502;10.722;2022-09-03T11:26:52;23.70;18.80
14252;DHT22;7210;51.502;10.722;2022-09-03T11:29:32;23.70;19.40
14252;DHT22;7210;51.502;10.722;2022-09-03T11:32:09;23.70;19.60
14252;DHT22;7210;51.502;10.722;2022-09-03T11:34:49;23.70;21.90
14252;DHT22;7210;51.502;10.722;2022-09-03T11:37:21;23.90;23.40
14252;DHT22;7210;51.502;10.722;2022-09-03T11:39:57;24.00;25.80
14252;DHT22;7210;51.502;10.722;2022-09-03T11:42:34;24.10;23.20
14252;DHT22;7210;51.502;10.722;2022-09-03T11:45:20;24.00;24.70
14252;DHT22;7210;51.502;10.722;2022-09-03T11:47:50;23.90;23.30
14252;DHT22;7210;51.502;10.722;2022-09-03T11:50:21;23.80;23.90
14252;DHT22;7210;51.502;10.722;2022-09-03T11:52:51;24.10;26.10
14252;DHT22;7210;51.502;10.722;2022-09-03T11:55:30;24.10;29.80
14252;DHT22;7210;51.502;10.722;2022-09-03T11:58:11;24.20;30.20
14252;DHT22;7210;51.502;10.722;2022-09-03T12:00:45;24.40;30.40
14252;DHT22;7210;51.502;10.722;2022-09-03T12:03:22;24.40;30.70
14252;DHT22;7210;51.502;10.722;2022-09-03T12:06:09;24.50;32.30
14252;DHT22;7210;51.502;10.722;2022-09-03T12:12:13;24.60;36.10
14252;DHT22;7210;51.502;10.722;2022-09-03T12:15:04;24.70;57.70
14252;DHT22;7210;51.502;10.722;2022-09-03T12:17:46;24.80;40.60
14252;DHT22;7210;51.502;10.722;2022-09-03T12:20:38;24.90;39.40
14252;DHT22;7210;51.502;10.722;2022-09-03T12:23:06;25.00;42.20
14252;DHT22;7210;51.502;10.722;2022-09-03T12:25:42;25.20;45.40
14252;DHT22;7210;51.502;10.722;2022-09-03T12:28:16;25.40;48.30
14252;DHT22;7210;51.502;10.722;2022-09-03T12:30:51;25.60;50.90
14252;DHT22;7210;51.502;10.722;2022-09-03T12:33:19;25.80;55.90
14252;DHT22;7210;51.502;10.722;2022-09-03T12:35:57;25.80;56.80
14252;DHT22;7210;51.502;10.722;2022-09-03T12:38:25;25.80;56.70
14252;DHT22;7210;51.502;10.722;2022-09-03T12:40:54;25.70;53.00
14252;DHT22;7210;51.502;10.722;2022-09-03T12:43:27;25.70;54.30
14252;DHT22;7210;51.502;10.722;2022-09-03T12:45:56;25.60;53.80
14252;DHT22;7210;51.502;10.722;2022-09-03T12:48:23;25.50;51.40
14252;DHT22;7210;51.502;10.722;2022-09-03T12:51:02;25.50;72.60
14252;DHT22;7210;51.502;10.722;2022-09-03T12:53:30;25.50;52.70
14252;DHT22;7210;51.502;10.722;2022-09-03T12:56:01;25.50;75.90
14252;DHT22;7210;51.502;10.722;2022-09-03T12:58:32;25.50;50.30
14252;DHT22;7210;51.502;10.722;2022-09-03T13:01:09;25.50;50.40
14252;DHT22;7210;51.502;10.722;2022-09-03T13:03:44;25.50;53.20
14252;DHT22;7210;51.502;10.722;2022-09-03T13:06:21;25.50;54.30
14252;DHT22;7210;51.502;10.722;2022-09-03T13:08:54;25.50;53.70
14252;DHT22;7210;51.502;10.722;2022-09-03T13:11:25;25.50;54.00
14252;DHT22;7210;51.502;10.722;2022-09-03T13:13:59;25.50;55.90
14252;DHT22;7210;51.502;10.722;2022-09-03T13:16:47;25.50;57.50
14252;DHT22;7210;51.502;10.722;2022-09-03T13:19:50;25.60;57.80
14252;DHT22;7210;51.502;10.722;2022-09-03T13:22:54;25.50;54.30
14252;DHT22;7210;51.502;10.722;2022-09-03T13:25:34;25.30;53.30
14252;DHT22;7210;51.502;10.722;2022-09-03T13:28:27;25.00;51.20
14252;DHT22;7210;51.502;10.722;2022-09-03T13:31:21;24.70;45.40
14252;DHT22;7210;51.502;10.722;2022-09-03T13:34:00;24.40;42.10
14252;DHT22;7210;51.502;10.722;2022-09-03T13:36:40;24.30;39.80
14252;DHT22;7210;51.502;10.722;2022-09-03T13:39:21;24.10;35.80
14252;DHT22;7210;51.502;10.722;2022-09-03T13:41:55;23.90;34.60
14252;DHT22;7210;51.502;10.722;2022-09-03T13:44:37;23.80;32.60
14252;DHT22;7210;51.502;10.722;2022-09-03T13:47:18;23.90;34.30
14252;DHT22;7210;51.502;10.722;2022-09-03T13:50:02;24.10;34.30
14252;DHT22;7210;51.502;10.722;2022-09-03T13:52:52;24.30;38.20
14252;DHT22;7210;51.502;10.722;2022-09-03T13:55:27;24.50;42.50
14252;DHT22;7210;51.502;10.722;2022-09-03T13:58:03;24.60;45.50
14252;DHT22;7210;51.502;10.722;2022-09-03T14:00:44;24.60;47.70
14252;DHT22;7210;51.502;10.722;2022-09-03T14:03:25;24.50;43.40
14252;DHT22;7210;51.502;10.722;2022-09-03T14:06:08;24.30;43.40
14252;DHT22;7210;51.502;10.722;2022-09-03T14:08:48;24.00;39.30
14252;DHT22;7210;51.502;10.722;2022-09-03T14:11:29;23.90;36.80
14252;DHT22;7210;51.502;10.722;2022-09-03T14:14:12;23.90;38.00
14252;DHT22;7210;51.502;10.722;2022-09-03T14:16:56;24.10;40.10
14252;DHT22;7210;51.502;10.722;2022-09-03T14:19:37;24.30;44.80
14252;DHT22;7210;51.502;10.722;2022-09-03T14:22:13;24.40;45.20
14252;DHT22;7210;51.502;10.722;2022-09-03T14:24:49;24.50;46.60
14252;DHT22;7210;51.502;10.722;2022-09-03T14:27:24;24.60;47.60
14252;DHT22;7210;51.502;10.722;2022-09-03T14:29:57;24.60;48.30
14252;DHT22;7210;51.502;10.722;2022-09-03T14:32:35;24.60;45.00
14252;DHT22;7210;51.502;10.722;2022-09-03T14:41:36;24.60;46.90
14252;DHT22;7210;51.502;10.722;2022-09-03T14:47:57;24.60;48.90
14252;DHT22;7210;51.502;10.722;2022-09-03T14:50:48;24.50;47.00
14252;DHT22;7210;51.502;10.722;2022-09-03T14:53:49;24.30;45.90
14252;DHT22;7210;51.502;10.722;2022-09-03T14:56:48;24.00;40.50
14252;DHT22;7210;51.502;10.722;2022-09-03T14:59:48;23.80;40.50
14252;DHT22;7210;51.502;10.722;2022-09-03T15:05:56;23.50;33.90
14252;DHT22;7210;51.502;10.722;2022-09-03T15:09:08;23.40;33.00
14252;DHT22;7210;51.502;10.722;2022-09-03T15:11:49;23.40;32.70
14252;DHT22;7210;51.502;10.722;2022-09-03T15:14:26;23.30;34.40
14252;DHT22;7210;51.502;10.722;2022-09-03T15:17:18;23.40;34.10
14252;DHT22;7210;51.502;10.722;2022-09-03T15:20:05;23.40;34.40
14252;DHT22;7210;51.502;10.722;2022-09-03T15:23:08;23.40;34.10
14252;DHT22;7210;51.502;10.722;2022-09-03T15:26:17;23.40;34.30
14252;DHT22;7210;51.502;10.722;2022-09-03T15:29:16;23.50;32.60
14252;DHT22;7210;51.502;10.722;2022-09-03T15:32:08;23.60;36.50
14252;DHT22;7210;51.502;10.722;2022-09-03T15:34:57;23.70;34.30
14252;DHT22;7210;51.502;10.722;2022-09-03T15:37:38;23.70;37.60
14252;DHT22;7210;51.502;10.722;2022-09-03T15:40:26;23.70;37.40
14252;DHT22;7210;51.502;10.722;2022-09-03T15:43:04;23.80;37.20
14252;DHT22;7210;51.502;10.722;2022-09-03T15:45:38;23.70;37.30
14252;DHT22;7210;51.502;10.722;2022-09-03T15:48:22;23.60;37.30
14252;DHT22;7210;51.502;10.722;2022-09-03T15:51:07;23.60;35.60
14252;DHT22;7210;51.502;10.722;2022-09-03T15:53:48;23.50;36.10
14252;DHT22;7210;51.502;10.722;2022-09-03T15:56:24;23.30;41.20
14252;DHT22;7210;51.502;10.722;2022-09-03T15:59:11;23.20;30.60
14252;DHT22;7210;51.502;10.722;2022-09-03T16:01:51;23.10;29.10
14252;DHT22;7210;51.502;10.722;2022-09-03T16:04:37;22.90;24.80
14252;DHT22;7210;51.502;10.722;2022-09-03T16:07:24;22.80;26.30
14252;DHT22;7210;51.502;10.722;2022-09-03T16:10:09;22.70;24.70
14252;DHT22;7210;51.502;10.722;2022-09-03T16:12:56;22.70;26.10
14252;DHT22;7210;51.502;10.722;2022-09-03T16:15:48;22.60;23.90
14252;DHT22;7210;51.502;10.722;2022-09-03T16:18:36;22.60;24.20
14252;DHT22;7210;51.502;10.722;2022-09-03T16:21:13;22.60;23.30
14252;DHT22;7210;51.502;10.722;2022-09-03T16:23:57;22.50;40.70
14252;DHT22;7210;51.502;10.722;2022-09-03T16:26:33;22.50;23.40
14252;DHT22;7210;51.502;10.722;2022-09-03T16:29:14;22.40;21.40
14252;DHT22;7210;51.502;10.722;2022-09-03T16:32:06;22.30;20.30
14252;DHT22;7210;51.502;10.722;2022-09-03T16:34:57;22.30;19.90
14252;DHT22;7210;51.502;10.722;2022-09-03T16:37:50;22.20;21.00
14252;DHT22;7210;51.502;10.722;2022-09-03T16:40:32;22.20;18.80
14252;DHT22;7210;51.502;10.722;2022-09-03T16:43:17;22.10;18.60
14252;DHT22;7210;51.502;10.722;2022-09-03T16:46:04;22.10;17.40
14252;DHT22;7210;51.502;10.722;2022-09-03T16:48:49;22.00;16.50
14252;DHT22;7210;51.502;10.722;2022-09-03T16:51:34;21.90;17.50
14252;DHT22;7210;51.502;10.722;2022-09-03T16:54:24;21.80;16.60
14252;DHT22;7210;51.502;10.722;2022-09-03T16:57:10;21.80;14.90
14252;DHT22;7210;51.502;10.722;2022-09-03T17:00:08;21.70;14.10
14252;DHT22;7210;51.502;10.722;2022-09-03T17:03:01;21.70;13.50
14252;DHT22;7210;51.502;10.722;2022-09-03T17:09:17;21.50;13.40
14252;DHT22;7210;51.502;10.722;2022-09-03T17:12:09;21.50;11.80
14252;DHT22;7210;51.502;10.722;2022-09-03T17:14:59;21.40;12.20
14252;DHT22;7210;51.502;10.722;2022-09-03T17:17:51;21.40;11.80
14252;DHT22;7210;51.502;10.722;2022-09-03T17:20:53;21.30;11.40
14252;DHT22;7210;51.502;10.722;2022-09-03T17:23:55;21.20;11.20
14252;DHT22;7210;51.502;10.722;2022-09-03T17:26:51;21.20;8.80